Idalou, Texas
Current Conditions -  °F | °C
As of 1:53 PM on Thursday 29 Jan 2015 (Local Time) from KLBB Reporting Station
Clear Clear  
Wind Chill: 56°   Ceiling: Unl
Heat Index: 56°   Visibility: 10mi
Dew Point: 24°   Wind: 20mph
Humidity: 29%   Direction: 40°NE
Pressure: 30.4"   Gusts: 29mph
Location:  33.67°N, 101.68°W
Report Text: KLBB 291953Z 04017G25KT 10SM CLR 13/M04 A3040 RMK AO2 SLP278 T01331044
Loading
Personal Weather Stations






























Interactive Weather Map New forecast layout! Learn more

10-Day Weather Forecast

Advertisements
Track Severe Weather on mobile